Cusick, WA

4:53 PM PST on December 21, 2014 (GMT -0800)
RAWS FAIRCHILD 36 RQF WA US | Change Station
CLOSE
Current Station
Personal Weather Station
Location: Cusick, WA
Elevation: 2450 ft
Nearby Weather Stations

Elev 2450 ft 48.42 °N, 117.36 °W | Updated 58 minutes ago

Mostly Cloudy
Mostly Cloudy
33 °F
Feels Like 33 °F
N
2
Wind Variable Wind from East
Gusts 5.0 mph

Today
High -- | Low -- °F
--% Chance of Precip.
Yesterday
High -- | Low -- °F
Precip. -- in
7:38 AM 3:56 PM
Waning Crescent, 0% visible
Pressure 29.88 in
Visibility 10.0 miles
Clouds Mostly Cloudy 12000 ft
Windchill 33 °F
Dew Point 33 °F
Humidity 100%
Rainfall 0.53 in
Snow Depth Not available.
UV 0 out of 12
Pollen .10 out of 12
Air Quality Not available.
Flu Activity Not available.
METAR KDEW 212353Z AUTO 22008KT 10SM BKN120 07/02 A2986 RMK AO2 SLP117 T00720017 10089 20067 51025

More Conditions Fewer Conditions

Pressure 29.88 in
Visibility 10.0 miles
Clouds Mostly Cloudy 12000 ft
Windchill 33 °F
Dew Point 33 °F
Humidity 100%
Rainfall 0.53 in
Snow Depth Not available.
UV 0 out of 12
Pollen .10 out of 12
Air Quality Not available.
Flu Activity Not available.
METAR KDEW 212353Z AUTO 22008KT 10SM BKN120 07/02 A2986 RMK AO2 SLP117 T00720017 10089 20067 51025

More Conditions Fewer Conditions

10-Day Weather Forecast

Almanac

Astronomy

Dec. 21, 2014 Rise Set
Actual Time
Civil Twilight
Nautical Twilight
Astronomical Twilight
Moon
Length of Visible Light
Length of Day
Tomorrow will be .
, % of the Moon is Illuminated

Today's Extremes

State Highs State Lows

Community

WunderPhotos

Upload Photos

1,779,509 photos uploaded!

WunderBlogs® & News

Nearby

Air Quality

  Air Quality AQ Index Pollutant
Not available.

Snow Depth

Station Depth Elevation

Earthquake Activity

City Distance Mag. Time & Date
Minimum magnitude displayed is 2.5.

Coastal Water Temperatures

Place Temperature

Nearby Weather Stations